Airfield :
LOGIN :

Register | Disclaimer

   EN    FR    IT 

 










Legend :    VFR   Marginal VFR   IFR   Intensive IFR   Very Intensive IFR
Visi :
Ceiling :
>= 8 km
>= 3000ft
5 to 8 km
1000 to 3000 ft
1500m to 5 km
500 to 1000 ft
800 to 1500m
200 to 500 ft
< 800m
< 200 ft
Symbols :   Thunderstorms  Fog  Heavy snow  Heavy precipitations  Wind > 20 kt
SIGMETs :     Misc.  Thunderstorms  Icing  Turbulence  Mountain Waves  Volcanic Ashes






- Airport Elevation : 286 ft
- IATA code : FFD


EGVA - RAF Fairford

CURRENT METAR :
  • 070855Z AUTO 23015KT 9999 FEW065 15/14 A3008 RMK AO2 SLP189 T01460138 57008 $

EXPIRED METARs :
  • 070755Z AUTO 23011KT 9999 BKN065 13/13 A3009 RMK AO2 SLPNO T01310129 $
  • 070655Z AUTO 22009KT 9999 BKN070 12/12 A3009 RMK AO2 SLPNO T01180116 $

TAF TAF EGVA
Valid from the 07 at 04:00 until the 08 at 10:00 UTC


070400Z 0704/0810 21010G15KT 9999 FEW015 BKN035 WS010/24033KT QNH3007INS
BECMG 0708/0709 22020G28KT 9999 FEW025 BKN050 510003 QNH2996INS
BECMG 0716/0717 24012G18KT 9999 VCSH FEW010 BKN025 QNH2998INS
BECMG 0721/0722 27012KT 9999 NSW FEW035 SCT050 BKN090 WS012/30027KT QNH3001INS TX18/0713Z TN09/0804Z



MET'MAP, your aeronautical weather chart ! - Copyright ORBIFLY December 2007 - Disclaimer

ORBIFLY MET'MAP TEAM :

Programming & Development : Alexandra Zaïnal
Original concept : Baudouin d'Aumeries
Technical & hardware support : Manuel Goepfert
Assistance : Marc-Olivier Méhu




SOURCES & CREDITS :

   NOAA